createdAt,value
2018-12-25T00:00:42.642Z,77.00
2018-12-25T00:03:09.956Z,77.00
2018-12-25T00:05:37.314Z,77.10
2018-12-25T00:08:04.731Z,77.10
2018-12-25T00:10:32.133Z,77.60
2018-12-25T00:12:59.411Z,77.50
2018-12-25T00:15:26.712Z,77.40
2018-12-25T00:17:54.021Z,77.20
2018-12-25T00:20:21.335Z,77.40
2018-12-25T00:22:48.658Z,76.70
2018-12-25T00:25:16.054Z,76.90
2018-12-25T00:27:43.486Z,77.10
2018-12-25T00:30:10.896Z,77.10
2018-12-25T00:32:38.220Z,77.40
2018-12-25T00:35:05.582Z,77.30
2018-12-25T00:37:33.000Z,77.30
2018-12-25T00:40:00.632Z,77.20
2018-12-25T00:42:28.043Z,77.30
2018-12-25T00:44:55.728Z,77.40
2018-12-25T00:47:23.030Z,77.30
2018-12-25T00:49:50.433Z,77.30
2018-12-25T00:52:18.050Z,77.30
2018-12-25T00:54:45.284Z,77.40
2018-12-25T00:57:12.615Z,77.40
2018-12-25T00:59:40.032Z,77.30
2018-12-25T01:02:07.428Z,77.50
2018-12-25T01:04:34.829Z,77.60
2018-12-25T01:07:02.147Z,77.10
2018-12-25T01:09:29.428Z,77.20
2018-12-25T01:11:56.754Z,77.40
2018-12-25T01:14:24.060Z,76.90
2018-12-25T01:16:51.434Z,76.30
2018-12-25T01:19:23.316Z,76.20
2018-12-25T01:21:47.826Z,75.40
2018-12-25T01:24:15.176Z,75.40
2018-12-25T01:26:42.582Z,75.00
2018-12-25T01:29:09.999Z,74.80
2018-12-25T01:31:37.390Z,75.40
2018-12-25T01:34:04.697Z,74.70
2018-12-25T01:36:32.011Z,74.90
2018-12-25T01:38:59.766Z,73.80
2018-12-25T01:41:27.172Z,73.50
2018-12-25T01:43:54.454Z,73.40
2018-12-25T01:46:21.848Z,73.60
2018-12-25T01:48:49.417Z,73.80
2018-12-25T01:51:16.740Z,73.50
2018-12-25T01:53:44.112Z,73.60
2018-12-25T01:56:11.427Z,72.80
2018-12-25T01:58:38.821Z,73.00
2018-12-25T02:01:06.118Z,73.40
2018-12-25T02:03:33.514Z,73.10
2018-12-25T02:06:00.960Z,73.00
2018-12-25T02:08:28.650Z,73.70
2018-12-25T02:10:55.928Z,73.30
2018-12-25T02:13:23.338Z,74.30
2018-12-25T02:15:50.638Z,73.80
2018-12-25T02:18:17.942Z,73.90
2018-12-25T02:20:45.322Z,74.10
2018-12-25T02:23:12.728Z,73.90
2018-12-25T02:25:40.133Z,73.90
2018-12-25T02:28:07.461Z,74.60
2018-12-25T02:30:34.791Z,75.60
2018-12-25T02:33:02.188Z,74.90
2018-12-25T02:35:29.601Z,75.30
2018-12-25T02:37:56.886Z,74.90
2018-12-25T02:40:24.222Z,75.00
2018-12-25T02:42:51.606Z,75.40
2018-12-25T02:45:18.990Z,75.30
2018-12-25T02:47:46.303Z,75.30
2018-12-25T02:50:14.026Z,75.60
2018-12-25T02:52:41.423Z,75.20
2018-12-25T02:55:08.821Z,76.20
2018-12-25T02:57:36.218Z,76.10
2018-12-25T03:00:04.617Z,75.90
2018-12-25T03:02:32.025Z,75.60
2018-12-25T03:04:59.426Z,76.10
2018-12-25T03:07:26.796Z,74.90
2018-12-25T03:09:54.156Z,75.80
2018-12-25T03:12:21.513Z,75.60
2018-12-25T03:14:48.904Z,75.00
2018-12-25T03:17:16.201Z,74.80
2018-12-25T03:19:43.510Z,74.80
2018-12-25T03:22:10.818Z,74.80
2018-12-25T03:24:38.118Z,75.10
2018-12-25T03:27:05.527Z,75.40
2018-12-25T03:29:32.907Z,75.60
2018-12-25T03:32:00.620Z,75.30
2018-12-25T03:34:28.001Z,75.50
2018-12-25T03:36:55.375Z,75.60
2018-12-25T03:39:22.750Z,75.50
2018-12-25T03:41:50.191Z,75.60
2018-12-25T03:44:17.561Z,75.90
2018-12-25T03:46:45.155Z,75.90
2018-12-25T03:49:12.446Z,77.00
2018-12-25T03:51:39.729Z,76.50
2018-12-25T03:54:07.092Z,76.30
2018-12-25T03:56:34.449Z,76.50
2018-12-25T03:59:01.756Z,76.40
2018-12-25T04:01:29.462Z,75.40
2018-12-25T04:03:57.183Z,75.40
2018-12-25T04:06:24.845Z,75.50
2018-12-25T04:08:52.129Z,75.60
2018-12-25T04:11:19.519Z,75.70
2018-12-25T04:13:46.814Z,75.70
2018-12-25T04:16:14.203Z,75.50
2018-12-25T04:18:41.467Z,75.60
2018-12-25T04:21:08.868Z,75.60
2018-12-25T04:23:36.289Z,75.80
2018-12-25T04:26:03.709Z,76.10
2018-12-25T04:28:31.398Z,75.90
2018-12-25T04:30:58.669Z,76.20
2018-12-25T04:33:26.074Z,76.20
2018-12-25T04:35:53.446Z,76.30
2018-12-25T04:38:20.853Z,76.50
2018-12-25T04:40:48.135Z,76.20
2018-12-25T04:43:15.510Z,76.50
2018-12-25T04:45:43.007Z,76.50
2018-12-25T04:48:10.380Z,76.40
2018-12-25T04:50:37.794Z,76.30
2018-12-25T04:53:05.411Z,76.20
2018-12-25T04:55:33.119Z,76.00
2018-12-25T04:58:00.394Z,76.00
2018-12-25T05:00:27.742Z,76.40
2018-12-25T05:02:55.025Z,76.40
2018-12-25T05:05:22.340Z,76.20
2018-12-25T05:07:49.702Z,76.30
2018-12-25T05:10:17.358Z,76.40
2018-12-25T05:12:44.742Z,76.40
2018-12-25T05:15:11.999Z,76.40
2018-12-25T05:17:39.286Z,76.80
2018-12-25T05:20:06.621Z,76.30
2018-12-25T05:22:33.925Z,76.10
2018-12-25T05:25:01.216Z,76.20
2018-12-25T05:27:28.606Z,76.20
2018-12-25T05:29:55.900Z,75.50
2018-12-25T05:32:23.304Z,75.90
2018-12-25T05:34:50.682Z,75.60
2018-12-25T05:37:18.227Z,75.60
2018-12-25T05:39:45.515Z,75.00
2018-12-25T05:42:12.797Z,74.60
2018-12-25T05:44:40.120Z,74.90
2018-12-25T05:47:07.499Z,75.00
2018-12-25T05:49:34.909Z,75.30
2018-12-25T05:52:02.303Z,75.40
2018-12-25T05:54:29.691Z,75.10
2018-12-25T05:56:57.000Z,75.50
2018-12-25T05:59:24.349Z,75.90
2018-12-25T06:01:51.681Z,75.70
2018-12-25T06:04:19.061Z,75.30
2018-12-25T06:06:46.379Z,74.80
2018-12-25T06:09:13.745Z,75.20
2018-12-25T06:11:41.038Z,75.10
2018-12-25T06:14:08.417Z,75.40
2018-12-25T06:16:35.702Z,74.90
2018-12-25T06:19:03.105Z,74.80
2018-12-25T06:21:30.492Z,75.30
2018-12-25T06:23:57.800Z,75.40
2018-12-25T06:26:25.480Z,75.20
2018-12-25T06:28:52.768Z,76.60
2018-12-25T06:31:21.429Z,76.40
2018-12-25T06:33:49.006Z,75.70
2018-12-25T06:36:16.318Z,75.70
2018-12-25T06:38:43.900Z,75.80
2018-12-25T06:41:11.554Z,75.90
2018-12-25T06:43:38.955Z,75.40
2018-12-25T06:46:06.547Z,75.40
2018-12-25T06:48:33.824Z,75.30
2018-12-25T06:51:03.883Z,75.50
2018-12-25T06:53:30.307Z,74.70
2018-12-25T06:55:57.626Z,75.20
2018-12-25T06:58:25.028Z,75.20
2018-12-25T07:00:52.321Z,74.70
2018-12-25T07:03:19.748Z,75.10
2018-12-25T07:05:47.109Z,74.20
2018-12-25T07:08:14.422Z,74.20
2018-12-25T07:10:41.824Z,74.70
2018-12-25T07:13:09.245Z,74.90
2018-12-25T07:15:36.528Z,75.00
2018-12-25T07:18:03.812Z,74.30
2018-12-25T07:20:31.107Z,74.50
2018-12-25T07:22:58.393Z,74.60
2018-12-25T07:25:25.663Z,74.50
2018-12-25T07:27:53.193Z,75.10
2018-12-25T07:30:20.578Z,74.30
2018-12-25T07:32:48.018Z,74.40
2018-12-25T07:35:15.420Z,75.10
2018-12-25T07:37:42.786Z,75.20
2018-12-25T07:40:10.075Z,75.20
2018-12-25T07:42:37.402Z,75.20
2018-12-25T07:45:04.881Z,75.30
2018-12-25T07:47:32.159Z,75.20
2018-12-25T07:49:59.466Z,74.80
2018-12-25T07:52:27.097Z,75.50
2018-12-25T07:54:54.436Z,75.10
2018-12-25T07:57:21.862Z,74.70
2018-12-25T07:59:49.285Z,75.10
2018-12-25T08:02:16.615Z,74.40
2018-12-25T08:04:44.225Z,74.80
2018-12-25T08:07:11.567Z,74.90
2018-12-25T08:09:38.964Z,74.40
2018-12-25T08:12:06.262Z,74.80
2018-12-25T08:14:33.539Z,74.90
2018-12-25T08:17:00.850Z,74.30
2018-12-25T08:19:28.139Z,74.70
2018-12-25T08:21:55.581Z,75.10
2018-12-25T08:24:22.985Z,74.90
2018-12-25T08:26:50.403Z,75.10
2018-12-25T08:29:18.096Z,75.40
2018-12-25T08:31:45.497Z,75.20
2018-12-25T08:34:12.789Z,74.70
2018-12-25T08:36:40.119Z,74.90
2018-12-25T08:39:07.435Z,74.30
2018-12-25T08:41:34.842Z,74.00
2018-12-25T08:44:02.274Z,73.70
2018-12-25T08:46:29.898Z,73.80
2018-12-25T08:48:57.186Z,73.90
2018-12-25T08:51:24.551Z,73.80
2018-12-25T08:53:51.899Z,73.80
2018-12-25T08:56:19.360Z,74.40
2018-12-25T08:58:46.760Z,74.00
2018-12-25T09:01:14.192Z,74.00
2018-12-25T09:03:41.606Z,73.90
2018-12-25T09:06:08.944Z,73.20
2018-12-25T09:08:36.367Z,73.40
2018-12-25T09:11:03.813Z,72.40
2018-12-25T09:13:31.238Z,72.90
2018-12-25T09:15:58.673Z,73.60
2018-12-25T09:18:26.001Z,73.80
2018-12-25T09:20:53.703Z,72.60
2018-12-25T09:23:21.141Z,72.50
2018-12-25T09:25:48.434Z,72.70
2018-12-25T09:28:15.743Z,71.70
2018-12-25T09:30:43.160Z,71.40
2018-12-25T09:33:10.603Z,71.50
2018-12-25T09:35:38.027Z,70.50
2018-12-25T09:38:05.473Z,70.10
2018-12-25T09:40:32.842Z,71.50
2018-12-25T09:43:00.294Z,71.30
2018-12-25T09:45:27.710Z,71.10
2018-12-25T09:47:55.457Z,70.70
2018-12-25T09:50:23.216Z,70.70
2018-12-25T09:52:50.810Z,71.00
2018-12-25T09:55:18.233Z,70.90
2018-12-25T09:57:45.685Z,70.60
2018-12-25T10:00:13.491Z,70.60
2018-12-25T10:02:40.950Z,69.80
2018-12-25T10:05:08.352Z,69.40
2018-12-25T10:07:35.752Z,70.60
2018-12-25T10:10:03.458Z,68.70
2018-12-25T10:12:30.859Z,69.20
2018-12-25T10:14:58.313Z,68.10
2018-12-25T10:17:25.725Z,69.10
2018-12-25T10:19:53.091Z,67.70
2018-12-25T10:22:20.863Z,68.70
2018-12-25T10:24:48.326Z,67.10
2018-12-25T10:27:15.727Z,67.70
2018-12-25T10:29:43.035Z,68.90
2018-12-25T10:32:10.732Z,68.10
2018-12-25T10:34:38.141Z,65.00
2018-12-25T10:37:05.463Z,66.00
2018-12-25T10:39:32.925Z,66.50
2018-12-25T10:42:00.363Z,66.60
2018-12-25T10:44:27.778Z,65.90
2018-12-25T10:46:55.287Z,67.20
2018-12-25T10:49:22.718Z,66.60
2018-12-25T10:51:50.176Z,65.40
2018-12-25T10:54:17.661Z,64.80
2018-12-25T10:56:45.079Z,66.40
2018-12-25T10:59:12.475Z,66.60
2018-12-25T11:01:39.820Z,66.20
2018-12-25T11:04:07.249Z,66.10
2018-12-25T11:06:34.672Z,67.80
2018-12-25T11:09:02.027Z,66.20
2018-12-25T11:11:29.823Z,67.10
2018-12-25T11:13:57.308Z,66.50
2018-12-25T11:16:24.722Z,65.40
2018-12-25T11:18:52.402Z,65.80
2018-12-25T11:21:19.905Z,64.50
2018-12-25T11:23:47.277Z,64.20
2018-12-25T11:26:14.614Z,64.20
2018-12-25T11:28:42.401Z,64.90
2018-12-25T11:31:09.799Z,64.20
2018-12-25T11:33:37.275Z,63.70
2018-12-25T11:36:04.687Z,64.20
2018-12-25T11:38:32.142Z,64.80
2018-12-25T11:40:59.556Z,61.30
2018-12-25T11:43:26.979Z,63.00
2018-12-25T11:45:54.303Z,60.60
2018-12-25T11:48:22.051Z,64.00
2018-12-25T11:50:49.474Z,64.40
2018-12-25T11:53:17.117Z,63.50
2018-12-25T11:55:44.517Z,63.70
2018-12-25T11:58:12.118Z,62.80
2018-12-25T12:00:39.581Z,62.20
2018-12-25T12:03:06.913Z,62.60
2018-12-25T12:05:34.334Z,60.50
2018-12-25T12:08:01.829Z,60.70
2018-12-25T12:10:29.537Z,61.70
2018-12-25T12:12:56.947Z,61.50
2018-12-25T12:15:24.361Z,62.60
2018-12-25T12:17:51.693Z,61.80
2018-12-25T12:20:19.121Z,60.80
2018-12-25T12:22:46.471Z,61.70
2018-12-25T12:25:13.913Z,61.60
2018-12-25T12:27:41.370Z,63.00
2018-12-25T12:30:08.782Z,61.60
2018-12-25T12:32:36.188Z,61.60
2018-12-25T12:35:03.758Z,62.00
2018-12-25T12:37:31.094Z,61.80
2018-12-25T12:39:58.547Z,60.80
2018-12-25T12:42:25.957Z,63.00
2018-12-25T12:44:53.299Z,62.20
2018-12-25T12:47:20.634Z,64.10
2018-12-25T12:49:48.361Z,63.70
2018-12-25T12:52:17.575Z,63.90
2018-12-25T12:54:44.981Z,63.60
2018-12-25T12:57:12.403Z,63.90
2018-12-25T12:59:39.878Z,64.60
2018-12-25T13:02:07.270Z,62.90
2018-12-25T13:04:34.932Z,64.20
2018-12-25T13:07:02.377Z,64.70
2018-12-25T13:09:30.598Z,64.90
2018-12-25T13:11:58.025Z,64.40
2018-12-25T13:14:25.435Z,65.00
2018-12-25T13:16:52.843Z,63.70
2018-12-25T13:19:20.162Z,63.60
2018-12-25T13:21:47.635Z,64.40
2018-12-25T13:24:15.057Z,64.50
2018-12-25T13:26:42.516Z,65.10
2018-12-25T13:29:09.935Z,64.60
2018-12-25T13:31:37.347Z,65.40
2018-12-25T13:34:04.740Z,65.60
2018-12-25T13:36:32.187Z,65.80
2018-12-25T13:38:59.605Z,66.70
2018-12-25T13:41:27.057Z,65.80
2018-12-25T13:43:54.485Z,66.30
2018-12-25T13:46:21.914Z,65.90
2018-12-25T13:48:49.604Z,67.00
2018-12-25T13:51:17.026Z,66.30
2018-12-25T13:53:44.457Z,67.70
2018-12-25T13:56:11.847Z,67.90
2018-12-25T13:58:39.879Z,67.50
2018-12-25T14:01:07.299Z,66.70
2018-12-25T14:03:34.918Z,66.60
2018-12-25T14:06:02.326Z,65.90
2018-12-25T14:08:29.677Z,66.50
2018-12-25T14:10:57.035Z,66.60
2018-12-25T14:13:24.464Z,65.50
2018-12-25T14:15:51.868Z,66.20
2018-12-25T14:18:19.389Z,65.60
2018-12-25T14:20:46.790Z,65.10
2018-12-25T14:23:14.241Z,64.90
2018-12-25T14:25:41.562Z,65.00
2018-12-25T14:28:08.955Z,65.40
2018-12-25T14:30:36.381Z,65.30
2018-12-25T14:33:03.749Z,66.50
2018-12-25T14:35:31.182Z,66.00
2018-12-25T14:37:58.511Z,64.20
2018-12-25T14:40:25.941Z,65.90
2018-12-25T14:42:53.423Z,66.20
2018-12-25T14:45:20.901Z,66.40
2018-12-25T14:47:48.385Z,66.70
2018-12-25T14:50:15.827Z,67.50
2018-12-25T14:52:43.271Z,67.80
2018-12-25T14:55:11.077Z,67.40
2018-12-25T14:57:38.531Z,67.60
2018-12-25T15:00:07.197Z,67.80
2018-12-25T15:02:34.603Z,67.20
2018-12-25T15:05:02.105Z,68.60
2018-12-25T15:07:29.498Z,67.50
2018-12-25T15:09:56.906Z,68.50
2018-12-25T15:12:24.307Z,68.60
2018-12-25T15:14:51.783Z,69.30
2018-12-25T15:17:19.471Z,69.50
2018-12-25T15:19:46.786Z,68.40
2018-12-25T15:22:14.154Z,69.00
2018-12-25T15:24:41.529Z,69.30
2018-12-25T15:27:08.847Z,69.80
2018-12-25T15:29:36.597Z,70.00
2018-12-25T15:32:05.161Z,70.10
2018-12-25T15:34:36.906Z,69.70
2018-12-25T15:37:04.343Z,70.00
2018-12-25T15:39:31.781Z,69.00
2018-12-25T15:41:59.094Z,70.40
2018-12-25T15:44:26.583Z,70.00
2018-12-25T15:46:53.997Z,70.00
2018-12-25T15:49:21.453Z,70.60
2018-12-25T15:51:48.885Z,70.40
2018-12-25T15:54:16.355Z,70.20
2018-12-25T15:56:43.860Z,70.50
2018-12-25T15:59:11.266Z,70.70
2018-12-25T16:01:38.740Z,70.90
2018-12-25T16:04:06.166Z,70.50
2018-12-25T16:06:33.495Z,70.90
2018-12-25T16:09:00.926Z,70.90
2018-12-25T16:11:28.607Z,71.40
2018-12-25T16:13:56.644Z,71.20
2018-12-25T16:16:24.370Z,71.40
2018-12-25T16:18:51.794Z,71.60
2018-12-25T16:21:19.523Z,71.60
2018-12-25T16:23:47.118Z,71.80
2018-12-25T16:26:14.568Z,71.90
2018-12-25T16:28:42.047Z,71.80
2018-12-25T16:31:09.488Z,71.50
2018-12-25T16:33:36.927Z,71.90
2018-12-25T16:36:04.386Z,72.10
2018-12-25T16:38:31.820Z,72.20
2018-12-25T16:40:59.231Z,72.40
2018-12-25T16:43:26.654Z,72.80
2018-12-25T16:45:54.110Z,73.00
2018-12-25T16:48:21.534Z,73.00
2018-12-25T16:50:49.002Z,72.90
2018-12-25T16:53:19.504Z,72.60
2018-12-25T16:55:47.028Z,73.00
2018-12-25T16:58:14.431Z,73.30
2018-12-25T17:00:41.949Z,72.80
2018-12-25T17:03:09.399Z,73.00
2018-12-25T17:05:36.752Z,73.10
2018-12-25T17:08:04.479Z,72.70
2018-12-25T17:10:31.907Z,72.50
2018-12-25T17:12:59.349Z,73.30
2018-12-25T17:15:26.739Z,72.80
2018-12-25T17:17:54.351Z,73.10
2018-12-25T17:20:22.098Z,73.20
2018-12-25T17:22:49.485Z,73.50
2018-12-25T17:25:16.907Z,73.10
2018-12-25T17:27:44.378Z,72.70
2018-12-25T17:30:11.837Z,73.10
2018-12-25T17:32:39.270Z,72.40
2018-12-25T17:35:06.673Z,72.80
2018-12-25T17:37:34.082Z,72.50
2018-12-25T17:40:01.556Z,72.60
2018-12-25T17:42:29.889Z,72.80
2018-12-25T17:44:57.252Z,72.90
2018-12-25T17:47:24.705Z,72.60
2018-12-25T17:49:52.125Z,72.80
2018-12-25T17:52:19.564Z,73.00
2018-12-25T17:54:47.015Z,73.00
2018-12-25T17:57:14.395Z,73.10
2018-12-25T17:59:41.823Z,73.40
2018-12-25T18:02:09.236Z,73.50
2018-12-25T18:04:36.727Z,73.70
2018-12-25T18:07:04.183Z,73.50
2018-12-25T18:09:31.637Z,73.60
2018-12-25T18:11:59.175Z,73.30
2018-12-25T18:14:26.648Z,73.40
2018-12-25T18:16:54.076Z,73.60
2018-12-25T18:19:21.804Z,73.60
2018-12-25T18:21:49.690Z,73.60
2018-12-25T18:24:19.385Z,73.60
2018-12-25T18:26:46.462Z,73.90
2018-12-25T18:29:14.022Z,73.60
2018-12-25T18:31:41.680Z,73.50
2018-12-25T18:34:09.143Z,73.20
2018-12-25T18:36:36.652Z,73.10
2018-12-25T18:39:05.836Z,73.60
2018-12-25T18:41:33.597Z,73.70
2018-12-25T18:44:01.416Z,73.60
2018-12-25T18:46:29.393Z,73.60
2018-12-25T18:48:57.263Z,74.00
2018-12-25T18:51:25.084Z,73.90
2018-12-25T18:53:52.454Z,74.40
2018-12-25T18:56:19.955Z,74.40
2018-12-25T18:58:47.435Z,74.30
2018-12-25T19:01:14.942Z,74.00
2018-12-25T19:03:42.397Z,73.60
2018-12-25T19:06:09.960Z,73.60
2018-12-25T19:08:37.443Z,73.50
2018-12-25T19:11:05.000Z,74.20
2018-12-25T19:13:32.768Z,74.10
2018-12-25T19:16:00.438Z,73.80
2018-12-25T19:18:28.332Z,73.40
2018-12-25T19:20:55.822Z,73.90
2018-12-25T19:23:23.312Z,74.10
2018-12-25T19:25:56.816Z,73.50
2018-12-25T19:28:24.341Z,73.80
2018-12-25T19:30:51.797Z,74.20
2018-12-25T19:33:19.429Z,74.20
2018-12-25T19:35:46.979Z,74.40
2018-12-25T19:38:14.441Z,74.60
2018-12-25T19:40:42.612Z,74.30
2018-12-25T19:43:10.129Z,75.10
2018-12-25T19:45:37.608Z,75.10
2018-12-25T19:48:05.101Z,74.80
2018-12-25T19:50:32.607Z,74.50
2018-12-25T19:53:00.122Z,74.50
2018-12-25T19:55:27.522Z,74.40
2018-12-25T19:57:55.084Z,74.30
2018-12-25T20:00:22.962Z,74.30
2018-12-25T20:03:07.282Z,73.60
2018-12-25T20:06:18.343Z,74.50
2018-12-25T20:09:36.761Z,74.30
2018-12-25T20:12:47.024Z,74.40
2018-12-25T20:15:40.942Z,73.80
2018-12-25T20:18:37.145Z,73.30
2018-12-25T20:21:40.935Z,73.10
2018-12-25T20:24:21.702Z,73.40
2018-12-25T20:27:43.214Z,73.70
2018-12-25T20:30:42.785Z,74.20
2018-12-25T20:34:04.643Z,73.90
2018-12-25T20:37:25.657Z,73.90
2018-12-25T20:40:30.153Z,74.40
2018-12-25T20:43:39.321Z,74.90
2018-12-25T20:46:41.686Z,74.80
2018-12-25T20:49:49.805Z,75.00
2018-12-25T20:53:14.021Z,74.70
2018-12-25T20:56:30.206Z,74.80
2018-12-25T20:59:52.319Z,74.50
2018-12-25T21:02:49.330Z,74.80
2018-12-25T21:06:00.925Z,73.70
2018-12-25T21:09:06.225Z,73.70
2018-12-25T21:12:11.154Z,74.50
2018-12-25T21:15:20.445Z,74.80
2018-12-25T21:18:34.521Z,74.80
2018-12-25T21:21:38.601Z,74.00
2018-12-25T21:24:42.314Z,75.00
2018-12-25T21:27:33.576Z,74.70
2018-12-25T21:30:03.390Z,74.70
2018-12-25T21:32:32.753Z,74.70
2018-12-25T21:35:07.105Z,74.80
2018-12-25T21:37:35.003Z,75.20
2018-12-25T21:40:02.831Z,75.10
2018-12-25T21:42:30.647Z,75.10
2018-12-25T21:44:58.422Z,74.80
2018-12-25T21:47:25.837Z,74.80
2018-12-25T21:49:53.457Z,74.20
2018-12-25T21:52:20.891Z,74.50
2018-12-25T21:54:48.577Z,73.80
2018-12-25T21:57:16.627Z,74.10
2018-12-25T21:59:44.071Z,74.70
2018-12-25T22:02:11.625Z,75.10
2018-12-25T22:04:39.463Z,75.20
2018-12-25T22:07:06.954Z,75.60
2018-12-25T22:09:34.466Z,75.90
2018-12-25T22:12:01.962Z,76.10
2018-12-25T22:14:29.367Z,76.40
2018-12-25T22:16:57.175Z,75.80
2018-12-25T22:19:24.634Z,77.60
2018-12-25T22:21:52.260Z,76.60
2018-12-25T22:24:19.763Z,77.00
2018-12-25T22:26:47.267Z,77.00
2018-12-25T22:29:14.720Z,76.40
2018-12-25T22:31:42.171Z,76.40
2018-12-25T22:34:09.660Z,76.10
2018-12-25T22:36:37.089Z,76.40
2018-12-25T22:39:05.635Z,76.30
2018-12-25T22:41:33.116Z,77.00
2018-12-25T22:44:00.816Z,76.50
2018-12-25T22:46:28.306Z,76.20
2018-12-25T22:48:55.745Z,76.50
2018-12-25T22:51:23.192Z,76.90
2018-12-25T22:53:50.499Z,77.10
2018-12-25T22:56:17.960Z,76.80
2018-12-25T22:58:45.447Z,76.50
2018-12-25T23:01:13.012Z,76.40
2018-12-25T23:03:40.477Z,76.60
2018-12-25T23:06:07.879Z,76.00
2018-12-25T23:08:35.359Z,76.70
2018-12-25T23:11:02.847Z,76.60
2018-12-25T23:13:30.359Z,76.60
2018-12-25T23:15:57.782Z,75.60
2018-12-25T23:18:25.235Z,76.30
2018-12-25T23:20:52.656Z,76.10
2018-12-25T23:23:20.029Z,76.00
2018-12-25T23:25:47.428Z,76.40
2018-12-25T23:28:14.862Z,76.00
2018-12-25T23:30:42.283Z,76.00
2018-12-25T23:33:09.699Z,75.50
2018-12-25T23:35:37.113Z,75.70
2018-12-25T23:38:04.428Z,76.10
2018-12-25T23:40:32.412Z,76.30
2018-12-25T23:43:00.027Z,76.40
2018-12-25T23:45:27.341Z,76.20
2018-12-25T23:47:54.759Z,76.40
2018-12-25T23:50:22.439Z,76.70
2018-12-25T23:52:49.899Z,76.90
2018-12-25T23:55:17.604Z,77.20
2018-12-25T23:57:45.315Z,77.30
